Terminal Aerodrome Forecast
Issued by NWS

Home | Current Version | Previous Version | Text Only | Print | Product List | Glossary On
Versions: 1 2 3 4 5 6 7 8 9 10 11 12 13 14 15 16 17
000
FTUS43 KABR 280500
TAFPIR
TAF
KPIR 280520Z 2806/2906 24007KT P6SM SCT100
     FM281300 36006KT P6SM SCT100
     FM281600 07010KT P6SM BKN018 BKN100
     FM290000 06013KT 2SM -SN BR OVC025=

USA.gov is the U.S. government's official web portal to all federal, state and local government web resources and services.